ANZ384 NZCH-NZWN
Flight info
| Callsign | ANZ384 |
|---|---|
| Flight time | 0h 46m |
| Altitude | 19000 |
| Route | GRETA Y393 WARDS |
| Aircraft | A320/M-SDE3FGHIRWY/LB1 |
Departure
| Time | 2026-04-27 23:42 |
|---|---|
| Airport | Christchurch International Airport (NZCH) |
Arrival
| Time | 2026-04-28 00:29 |
|---|---|
| Airport | Wellington International Airport (NZWN) |
| Time | Latitude | Longitude | Altitude | Speed | Heading |
|---|---|---|---|---|---|
| 2026-04-27 23:19 | -43.48839 | 172.53817 | 108 ft | 0 kts | 130° |
| 2026-04-27 23:32 | -43.48836 | 172.53812 | 109 ft | 3 kts | 130° |
| 2026-04-27 23:32 | -43.48819 | 172.53785 | 108 ft | 4 kts | 133° |
| 2026-04-27 23:32 | -43.48800 | 172.53758 | 108 ft | 4 kts | 137° |
| 2026-04-27 23:32 | -43.48779 | 172.53734 | 109 ft | 4 kts | 146° |
| 2026-04-27 23:33 | -43.48756 | 172.53719 | 108 ft | 4 kts | 177° |
| 2026-04-27 23:33 | -43.48742 | 172.53722 | 109 ft | 0 kts | 220° |
| 2026-04-27 23:34 | -43.48742 | 172.53721 | 108 ft | 0 kts | 220° |
| 2026-04-27 23:34 | -43.48745 | 172.53718 | 108 ft | 3 kts | 220° |
| 2026-04-27 23:35 | -43.48784 | 172.53673 | 107 ft | 9 kts | 220° |
| 2026-04-27 23:35 | -43.48839 | 172.53610 | 108 ft | 11 kts | 220° |
| 2026-04-27 23:35 | -43.48910 | 172.53536 | 109 ft | 14 kts | 213° |
| 2026-04-27 23:35 | -43.48981 | 172.53459 | 114 ft | 12 kts | 219° |
| 2026-04-27 23:36 | -43.49060 | 172.53369 | 110 ft | 18 kts | 220° |
| 2026-04-27 23:36 | -43.49161 | 172.53252 | 114 ft | 19 kts | 220° |
| 2026-04-27 23:36 | -43.49285 | 172.53109 | 115 ft | 28 kts | 220° |
| 2026-04-27 23:36 | -43.49431 | 172.52939 | 121 ft | 28 kts | 220° |
| 2026-04-27 23:37 | -43.49578 | 172.52769 | 126 ft | 28 kts | 220° |
| 2026-04-27 23:37 | -43.49733 | 172.52589 | 123 ft | 28 kts | 220° |
| 2026-04-27 23:37 | -43.49794 | 172.52456 | 127 ft | 9 kts | 269° |
| 2026-04-27 23:37 | -43.49792 | 172.52401 | 127 ft | 0 kts | 274° |
| 2026-04-27 23:40 | -43.49792 | 172.52399 | 127 ft | 1 kts | 274° |
| 2026-04-27 23:40 | -43.49787 | 172.52305 | 122 ft | 16 kts | 275° |
| 2026-04-27 23:41 | -43.49728 | 172.52250 | 123 ft | 10 kts | 32° |
| 2026-04-27 23:41 | -43.49712 | 172.52268 | 121 ft | 0 kts | 40° |
| 2026-04-27 23:41 | -43.49710 | 172.52270 | 122 ft | 2 kts | 40° |
| 2026-04-27 23:42 | -43.49549 | 172.52457 | 121 ft | 67 kts | 40° |
| 2026-04-27 23:42 | -43.49026 | 172.53059 | 115 ft | 126 kts | 40° |
| 2026-04-27 23:42 | -43.48238 | 172.53968 | 205 ft | 161 kts | 40° |
| 2026-04-27 23:42 | -43.47383 | 172.54995 | 811 ft | 163 kts | 39° |
| 2026-04-27 23:43 | -43.46417 | 172.55798 | 1460 ft | 163 kts | 24° |
| 2026-04-27 23:43 | -43.45372 | 172.56451 | 2003 ft | 171 kts | 23° |
| 2026-04-27 23:43 | -43.44213 | 172.57147 | 2268 ft | 193 kts | 23° |
| 2026-04-27 23:43 | -43.42917 | 172.57936 | 2536 ft | 216 kts | 24° |
| 2026-04-27 23:44 | -43.41476 | 172.58828 | 2849 ft | 239 kts | 24° |
| 2026-04-27 23:44 | -43.39881 | 172.59826 | 3312 ft | 263 kts | 25° |
| 2026-04-27 23:44 | -43.38193 | 172.60891 | 4137 ft | 270 kts | 25° |
| 2026-04-27 23:44 | -43.36476 | 172.61984 | 5081 ft | 273 kts | 25° |
| 2026-04-27 23:45 | -43.34744 | 172.63092 | 6030 ft | 277 kts | 24° |
| 2026-04-27 23:45 | -43.33022 | 172.64321 | 6894 ft | 282 kts | 36° |
| 2026-04-27 23:45 | -43.31507 | 172.66071 | 7717 ft | 286 kts | 40° |
| 2026-04-27 23:45 | -43.29989 | 172.67865 | 8569 ft | 290 kts | 40° |
| 2026-04-27 23:46 | -43.28460 | 172.69695 | 9432 ft | 293 kts | 40° |
| 2026-04-27 23:46 | -43.26906 | 172.71543 | 10232 ft | 299 kts | 39° |
| 2026-04-27 23:46 | -43.25268 | 172.73469 | 10528 ft | 322 kts | 39° |
| 2026-04-27 23:46 | -43.23505 | 172.75521 | 10846 ft | 340 kts | 39° |
| 2026-04-27 23:47 | -43.21674 | 172.77638 | 11446 ft | 348 kts | 38° |
| 2026-04-27 23:47 | -43.19807 | 172.79786 | 12187 ft | 354 kts | 38° |
| 2026-04-27 23:47 | -43.17902 | 172.81969 | 13167 ft | 360 kts | 37° |
| 2026-04-27 23:47 | -43.15957 | 172.84192 | 14122 ft | 368 kts | 37° |
| 2026-04-27 23:48 | -43.13972 | 172.86459 | 14970 ft | 375 kts | 37° |
| 2026-04-27 23:48 | -43.11952 | 172.88764 | 15839 ft | 381 kts | 37° |
| 2026-04-27 23:48 | -43.09898 | 172.91113 | 16717 ft | 388 kts | 37° |
| 2026-04-27 23:48 | -43.07811 | 172.93498 | 17582 ft | 394 kts | 37° |
| 2026-04-27 23:49 | -43.05691 | 172.95921 | 18460 ft | 401 kts | 37° |
| 2026-04-27 23:49 | -43.03523 | 172.98400 | 19006 ft | 415 kts | 37° |
| 2026-04-27 23:49 | -43.01249 | 173.00992 | 19185 ft | 437 kts | 37° |
| 2026-04-27 23:49 | -42.98847 | 173.03722 | 19251 ft | 459 kts | 37° |
| 2026-04-27 23:50 | -42.96349 | 173.06549 | 19261 ft | 473 kts | 37° |
| 2026-04-27 23:50 | -42.93735 | 173.09354 | 19256 ft | 481 kts | 35° |
| 2026-04-27 23:50 | -42.91042 | 173.12089 | 19257 ft | 483 kts | 33° |
| 2026-04-27 23:50 | -42.88313 | 173.14766 | 19260 ft | 483 kts | 33° |
| 2026-04-27 23:51 | -42.85572 | 173.17424 | 19262 ft | 484 kts | 33° |
| 2026-04-27 23:51 | -42.82834 | 173.20091 | 19260 ft | 484 kts | 33° |
| 2026-04-27 23:51 | -42.80102 | 173.22776 | 19255 ft | 484 kts | 33° |
| 2026-04-27 23:51 | -42.77388 | 173.25475 | 19261 ft | 484 kts | 33° |
| 2026-04-27 23:52 | -42.74674 | 173.28186 | 19265 ft | 484 kts | 34° |
| 2026-04-27 23:52 | -42.71968 | 173.30898 | 19260 ft | 484 kts | 34° |
| 2026-04-27 23:52 | -42.69257 | 173.33609 | 19262 ft | 484 kts | 34° |
| 2026-04-27 23:52 | -42.66547 | 173.36316 | 19260 ft | 484 kts | 34° |
| 2026-04-27 23:53 | -42.63836 | 173.39022 | 19258 ft | 483 kts | 33° |
| 2026-04-27 23:53 | -42.61163 | 173.41682 | 19262 ft | 483 kts | 33° |
| 2026-04-27 23:53 | -42.58452 | 173.44371 | 19254 ft | 483 kts | 33° |
| 2026-04-27 23:53 | -42.55739 | 173.47054 | 19249 ft | 483 kts | 33° |
| 2026-04-27 23:54 | -42.53028 | 173.49731 | 19245 ft | 482 kts | 33° |
| 2026-04-27 23:54 | -42.50314 | 173.52410 | 19241 ft | 482 kts | 33° |
| 2026-04-27 23:54 | -42.47600 | 173.55091 | 19250 ft | 482 kts | 33° |
| 2026-04-27 23:54 | -42.44891 | 173.57765 | 19246 ft | 482 kts | 33° |
| 2026-04-27 23:55 | -42.42178 | 173.60443 | 19233 ft | 482 kts | 33° |
| 2026-04-27 23:55 | -42.39462 | 173.63114 | 19236 ft | 482 kts | 33° |
| 2026-04-27 23:55 | -42.36747 | 173.65780 | 19237 ft | 482 kts | 33° |
| 2026-04-27 23:55 | -42.34032 | 173.68443 | 19235 ft | 482 kts | 33° |
| 2026-04-27 23:56 | -42.31315 | 173.71103 | 19236 ft | 482 kts | 33° |
| 2026-04-27 23:56 | -42.28599 | 173.73764 | 19237 ft | 482 kts | 33° |
| 2026-04-27 23:56 | -42.25882 | 173.76426 | 19233 ft | 482 kts | 33° |
| 2026-04-27 23:56 | -42.23163 | 173.79081 | 19216 ft | 482 kts | 33° |
| 2026-04-27 23:57 | -42.20447 | 173.81732 | 19228 ft | 482 kts | 33° |
| 2026-04-27 23:57 | -42.17729 | 173.84382 | 19232 ft | 482 kts | 33° |
| 2026-04-27 23:57 | -42.15011 | 173.87028 | 19234 ft | 482 kts | 33° |
| 2026-04-27 23:57 | -42.12293 | 173.89677 | 19237 ft | 482 kts | 33° |
| 2026-04-27 23:58 | -42.09579 | 173.92321 | 19242 ft | 481 kts | 33° |
| 2026-04-27 23:58 | -42.06866 | 173.94961 | 19235 ft | 481 kts | 33° |
| 2026-04-27 23:58 | -42.04152 | 173.97603 | 19232 ft | 481 kts | 33° |
| 2026-04-27 23:58 | -42.01440 | 174.00239 | 19220 ft | 481 kts | 33° |
| 2026-04-27 23:59 | -41.98727 | 174.02868 | 19224 ft | 481 kts | 33° |
| 2026-04-27 23:59 | -41.96010 | 174.05489 | 19228 ft | 480 kts | 33° |
| 2026-04-27 23:59 | -41.93370 | 174.08035 | 19165 ft | 451 kts | 33° |
| 2026-04-27 23:59 | -41.90913 | 174.10412 | 18923 ft | 420 kts | 33° |
| 2026-04-28 00:00 | -41.88610 | 174.12637 | 18521 ft | 399 kts | 33° |
| 2026-04-28 00:00 | -41.86439 | 174.14725 | 18223 ft | 377 kts | 33° |
| 2026-04-28 00:00 | -41.84378 | 174.16707 | 18086 ft | 353 kts | 31° |
| 2026-04-28 00:00 | -41.82286 | 174.18150 | 17932 ft | 326 kts | 13° |
| 2026-04-28 00:01 | -41.80137 | 174.18639 | 17717 ft | 304 kts | 355° |
| 2026-04-28 00:01 | -41.78080 | 174.18304 | 17464 ft | 295 kts | 339° |
| 2026-04-28 00:01 | -41.76221 | 174.17267 | 17200 ft | 287 kts | 323° |
| 2026-04-28 00:01 | -41.74668 | 174.15646 | 16922 ft | 281 kts | 309° |
| 2026-04-28 00:02 | -41.73492 | 174.13565 | 16407 ft | 281 kts | 295° |
| 2026-04-28 00:02 | -41.72763 | 174.11135 | 15900 ft | 283 kts | 281° |
| 2026-04-28 00:02 | -41.72525 | 174.08518 | 15419 ft | 286 kts | 267° |
| 2026-04-28 00:02 | -41.72809 | 174.05881 | 14924 ft | 287 kts | 252° |
| 2026-04-28 00:03 | -41.73582 | 174.03510 | 14746 ft | 270 kts | 239° |
| 2026-04-28 00:03 | -41.74699 | 174.01546 | 14377 ft | 263 kts | 226° |
| 2026-04-28 00:03 | -41.76131 | 174.00027 | 13856 ft | 263 kts | 212° |
| 2026-04-28 00:03 | -41.77923 | 173.99239 | 13239 ft | 286 kts | 187° |
| 2026-04-28 00:04 | -41.79991 | 173.99633 | 12972 ft | 315 kts | 159° |
| 2026-04-28 00:04 | -41.82464 | 174.03195 | 12541 ft | 330 kts | 111° |
| 2026-04-28 00:04 | -41.83070 | 174.06173 | 12277 ft | 332 kts | 103° |
| 2026-04-28 00:05 | -41.83424 | 174.10269 | 11936 ft | 331 kts | 86° |
| 2026-04-28 00:05 | -41.83159 | 174.12275 | 11768 ft | 330 kts | 72° |
| 2026-04-28 00:05 | -41.82140 | 174.14998 | 11523 ft | 327 kts | 51° |
| 2026-04-28 00:05 | -41.80607 | 174.17226 | 11278 ft | 325 kts | 44° |
| 2026-04-28 00:06 | -41.79029 | 174.19385 | 11041 ft | 324 kts | 44° |
| 2026-04-28 00:06 | -41.77457 | 174.21526 | 10906 ft | 321 kts | 44° |
| 2026-04-28 00:06 | -41.75884 | 174.23664 | 10955 ft | 323 kts | 44° |
| 2026-04-28 00:06 | -41.74305 | 174.25806 | 10964 ft | 323 kts | 44° |
| 2026-04-28 00:07 | -41.72726 | 174.27950 | 10964 ft | 323 kts | 44° |
| 2026-04-28 00:07 | -41.71146 | 174.30096 | 10956 ft | 325 kts | 43° |
| 2026-04-28 00:07 | -41.69560 | 174.32253 | 10717 ft | 324 kts | 43° |
| 2026-04-28 00:07 | -41.67984 | 174.34396 | 10474 ft | 321 kts | 44° |
| 2026-04-28 00:08 | -41.66423 | 174.36516 | 10143 ft | 318 kts | 43° |
| 2026-04-28 00:08 | -41.64897 | 174.38592 | 9963 ft | 307 kts | 43° |
| 2026-04-28 00:08 | -41.63417 | 174.40589 | 9758 ft | 301 kts | 43° |
| 2026-04-28 00:08 | -41.61928 | 174.42575 | 9262 ft | 302 kts | 42° |
| 2026-04-28 00:09 | -41.60440 | 174.44546 | 8788 ft | 300 kts | 42° |
| 2026-04-28 00:09 | -41.58960 | 174.46500 | 8332 ft | 298 kts | 43° |
| 2026-04-28 00:09 | -41.57489 | 174.48444 | 7862 ft | 296 kts | 43° |
| 2026-04-28 00:09 | -41.56039 | 174.50362 | 7374 ft | 292 kts | 42° |
| 2026-04-28 00:10 | -41.54628 | 174.52231 | 6862 ft | 287 kts | 42° |
| 2026-04-28 00:10 | -41.53203 | 174.54120 | 6336 ft | 282 kts | 43° |
| 2026-04-28 00:10 | -41.51872 | 174.55889 | 6142 ft | 265 kts | 41° |
| 2026-04-28 00:10 | -41.50608 | 174.57573 | 5919 ft | 251 kts | 43° |
| 2026-04-28 00:11 | -41.49641 | 174.59465 | 5692 ft | 247 kts | 64° |
| 2026-04-28 00:11 | -41.49195 | 174.61691 | 5552 ft | 251 kts | 84° |
| 2026-04-28 00:11 | -41.49228 | 174.64018 | 5092 ft | 253 kts | 91° |
| 2026-04-28 00:11 | -41.49323 | 174.66374 | 4506 ft | 256 kts | 91° |
| 2026-04-28 00:12 | -41.49421 | 174.68719 | 4103 ft | 249 kts | 90° |
| 2026-04-28 00:12 | -41.49516 | 174.71000 | 3709 ft | 244 kts | 91° |
| 2026-04-28 00:12 | -41.49606 | 174.73218 | 3468 ft | 232 kts | 90° |
| 2026-04-28 00:12 | -41.49692 | 174.75335 | 3370 ft | 224 kts | 90° |
| 2026-04-28 00:13 | -41.49670 | 174.77360 | 3207 ft | 214 kts | 70° |
| 2026-04-28 00:13 | -41.48923 | 174.78977 | 2944 ft | 201 kts | 32° |
| 2026-04-28 00:13 | -41.47697 | 174.79679 | 2758 ft | 188 kts | 2° |
| 2026-04-28 00:13 | -41.46403 | 174.79782 | 2536 ft | 184 kts | 359° |
| 2026-04-28 00:14 | -41.45176 | 174.79862 | 2304 ft | 168 kts | 358° |
| 2026-04-28 00:14 | -41.44059 | 174.79939 | 2072 ft | 153 kts | 0° |
| 2026-04-28 00:14 | -41.43062 | 174.80003 | 1904 ft | 137 kts | 359° |
| 2026-04-28 00:14 | -41.42117 | 174.80064 | 1720 ft | 135 kts | 1° |
| 2026-04-28 00:15 | -41.41170 | 174.80125 | 1531 ft | 134 kts | 0° |
| 2026-04-28 00:15 | -41.40245 | 174.80185 | 1354 ft | 134 kts | 360° |
| 2026-04-28 00:15 | -41.39310 | 174.80244 | 1173 ft | 135 kts | 2° |
| 2026-04-28 00:15 | -41.38372 | 174.80303 | 1002 ft | 136 kts | 2° |
| 2026-04-28 00:16 | -41.37442 | 174.80364 | 819 ft | 134 kts | 4° |
| 2026-04-28 00:16 | -41.36504 | 174.80429 | 639 ft | 134 kts | 4° |
| 2026-04-28 00:16 | -41.35585 | 174.80492 | 472 ft | 133 kts | 4° |
| 2026-04-28 00:16 | -41.34664 | 174.80551 | 284 ft | 133 kts | 4° |
| 2026-04-28 00:17 | -41.33739 | 174.80618 | 141 ft | 130 kts | 4° |
| 2026-04-28 00:17 | -41.32845 | 174.80692 | 69 ft | 131 kts | 5° |
| 2026-04-28 00:17 | -41.31866 | 174.80791 | 438 ft | 147 kts | 5° |
| 2026-04-28 00:17 | -41.30831 | 174.80885 | 1316 ft | 148 kts | 3° |
| 2026-04-28 00:18 | -41.29744 | 174.81010 | 1995 ft | 171 kts | 4° |
| 2026-04-28 00:18 | -41.28480 | 174.81186 | 2595 ft | 191 kts | 4° |
| 2026-04-28 00:18 | -41.27136 | 174.81422 | 2958 ft | 199 kts | 4° |
| 2026-04-28 00:18 | -41.25753 | 174.81685 | 2997 ft | 201 kts | 5° |
| 2026-04-28 00:19 | -41.24369 | 174.81963 | 3001 ft | 200 kts | 3° |
| 2026-04-28 00:19 | -41.23025 | 174.81844 | 2997 ft | 196 kts | 340° |
| 2026-04-28 00:19 | -41.21890 | 174.80862 | 3014 ft | 201 kts | 311° |
| 2026-04-28 00:19 | -41.21296 | 174.79199 | 3014 ft | 203 kts | 281° |
| 2026-04-28 00:20 | -41.21462 | 174.77333 | 3011 ft | 210 kts | 248° |
| 2026-04-28 00:20 | -41.22400 | 174.75836 | 3010 ft | 219 kts | 216° |
| 2026-04-28 00:20 | -41.23845 | 174.75185 | 3019 ft | 227 kts | 194° |
| 2026-04-28 00:20 | -41.25420 | 174.74777 | 2995 ft | 227 kts | 197° |
| 2026-04-28 00:21 | -41.26962 | 174.74378 | 3002 ft | 229 kts | 196° |
| 2026-04-28 00:21 | -41.28517 | 174.73972 | 3026 ft | 229 kts | 195° |
| 2026-04-28 00:21 | -41.30087 | 174.73560 | 3016 ft | 230 kts | 195° |
| 2026-04-28 00:21 | -41.31652 | 174.73151 | 3023 ft | 229 kts | 194° |
| 2026-04-28 00:22 | -41.33219 | 174.72740 | 3003 ft | 230 kts | 196° |
| 2026-04-28 00:22 | -41.34795 | 174.72323 | 3003 ft | 231 kts | 194° |
| 2026-04-28 00:22 | -41.36355 | 174.71911 | 2804 ft | 228 kts | 197° |
| 2026-04-28 00:22 | -41.37920 | 174.71496 | 2475 ft | 230 kts | 195° |
| 2026-04-28 00:23 | -41.39466 | 174.71092 | 2340 ft | 223 kts | 195° |
| 2026-04-28 00:23 | -41.40965 | 174.70699 | 2147 ft | 217 kts | 196° |
| 2026-04-28 00:23 | -41.42390 | 174.70325 | 2040 ft | 198 kts | 193° |
| 2026-04-28 00:23 | -41.43679 | 174.70064 | 2013 ft | 178 kts | 181° |
| 2026-04-28 00:24 | -41.44845 | 174.70456 | 2022 ft | 171 kts | 149° |
| 2026-04-28 00:24 | -41.45672 | 174.71513 | 2010 ft | 162 kts | 116° |
| 2026-04-28 00:24 | -41.46070 | 174.72877 | 2006 ft | 156 kts | 96° |
| 2026-04-28 00:24 | -41.46194 | 174.74282 | 2006 ft | 150 kts | 81° |
| 2026-04-28 00:25 | -41.46072 | 174.75635 | 2007 ft | 144 kts | 66° |
| 2026-04-28 00:25 | -41.45740 | 174.76864 | 2009 ft | 138 kts | 53° |
| 2026-04-28 00:25 | -41.45231 | 174.77929 | 2008 ft | 134 kts | 41° |
| 2026-04-28 00:25 | -41.44586 | 174.78795 | 2007 ft | 129 kts | 30° |
| 2026-04-28 00:26 | -41.43853 | 174.79482 | 1929 ft | 129 kts | 23° |
| 2026-04-28 00:26 | -41.43040 | 174.79973 | 1838 ft | 129 kts | 11° |
| 2026-04-28 00:26 | -41.42154 | 174.80191 | 1695 ft | 132 kts | 0° |
| 2026-04-28 00:26 | -41.41227 | 174.80205 | 1534 ft | 134 kts | 359° |
| 2026-04-28 00:27 | -41.40299 | 174.80249 | 1370 ft | 133 kts | 359° |
| 2026-04-28 00:27 | -41.39368 | 174.80298 | 1183 ft | 134 kts | 2° |
| 2026-04-28 00:27 | -41.38422 | 174.80352 | 1003 ft | 135 kts | 4° |
| 2026-04-28 00:27 | -41.37492 | 174.80405 | 825 ft | 132 kts | 4° |
| 2026-04-28 00:28 | -41.36556 | 174.80459 | 650 ft | 135 kts | 3° |
| 2026-04-28 00:28 | -41.35650 | 174.80498 | 500 ft | 134 kts | 3° |
| 2026-04-28 00:28 | -41.34731 | 174.80536 | 308 ft | 132 kts | 5° |
| 2026-04-28 00:28 | -41.33814 | 174.80621 | 135 ft | 131 kts | 4° |
| 2026-04-28 00:29 | -41.32926 | 174.80676 | 39 ft | 117 kts | 4° |
| 2026-04-28 00:29 | -41.32249 | 174.80722 | 39 ft | 73 kts | 2° |
| 2026-04-28 00:29 | -41.31942 | 174.80742 | 53 ft | 18 kts | 6° |
| 2026-04-28 00:29 | -41.31898 | 174.80836 | 50 ft | 12 kts | 113° |
| 2026-04-28 00:30 | -41.31979 | 174.80867 | 50 ft | 15 kts | 180° |
| 2026-04-28 00:30 | -41.32101 | 174.80857 | 44 ft | 20 kts | 183° |
| 2026-04-28 00:30 | -41.32249 | 174.80842 | 41 ft | 21 kts | 178° |
| 2026-04-28 00:30 | -41.32408 | 174.80833 | 34 ft | 24 kts | 183° |
| 2026-04-28 00:31 | -41.32580 | 174.80825 | 29 ft | 25 kts | 182° |
| 2026-04-28 00:31 | -41.32739 | 174.80815 | 26 ft | 23 kts | 184° |
| 2026-04-28 00:31 | -41.32827 | 174.80844 | 26 ft | 10 kts | 109° |
| 2026-04-28 00:31 | -41.32887 | 174.80882 | 26 ft | 12 kts | 181° |
| 2026-04-28 00:32 | -41.32933 | 174.80948 | 26 ft | 10 kts | 157° |
| 2026-04-28 00:32 | -41.32979 | 174.80972 | 26 ft | 2 kts | 158° |
| 2026-04-28 00:32 | -41.32983 | 174.80974 | 26 ft | 0 kts | 158° |
| 2026-04-28 00:39 | -41.32972 | 174.80968 | 27 ft | 4 kts | 159° |
| 2026-04-28 00:39 | -41.32946 | 174.80957 | 27 ft | 4 kts | 166° |
| 2026-04-28 00:39 | -41.32925 | 174.80951 | 27 ft | 4 kts | 153° |
| 2026-04-28 00:39 | -41.32913 | 174.80928 | 27 ft | 4 kts | 93° |
| 2026-04-28 00:40 | -41.32914 | 174.80895 | 27 ft | 4 kts | 64° |
| 2026-04-28 00:40 | -41.32931 | 174.80877 | 27 ft | 4 kts | 5° |
| 2026-04-28 00:40 | -41.32955 | 174.80876 | 27 ft | 1 kts | 3° |
| 2026-04-28 00:40 | -41.32974 | 174.80916 | 27 ft | 13 kts | 96° |
| 2026-04-28 00:41 | -41.32936 | 174.80951 | 27 ft | 12 kts | 351° |
| 2026-04-28 00:41 | -41.32911 | 174.80918 | 27 ft | 3 kts | 259° |
| 2026-04-28 00:41 | -41.32899 | 174.80882 | 27 ft | 4 kts | 349° |
| 2026-04-28 00:41 | -41.32804 | 174.80886 | 27 ft | 10 kts | 3° |
| 2026-04-28 00:42 | -41.32787 | 174.80894 | 27 ft | 7 kts | 68° |
| 2026-04-28 00:42 | -41.32797 | 174.80936 | 27 ft | 5 kts | 116° |
| 2026-04-28 00:42 | -41.32807 | 174.80962 | 27 ft | 0 kts | 116° |